Andover, MA

8:48 PM EDT on October 16, 2019 (GMT -0400)
McGoo HQ | | Change Station
Active Advisory: Wind Advisory

Elev 282 ft 42.64 °N, 71.13 °W | Updated 11 seconds ago

Rain
Rain
54.7 °F
Feels Like 54.7 °F
N
0
Wind Variable Wind from NNE
Gusts 0.0 mph

Today
High -- | Low -- °F
--% Chance of Precip.
Yesterday
High -- | Low -- °F
Precip. -- in
Pressure 29.73 in
Visibility 10.0 miles
Clouds Overcast 1800 ft
Dew Point -1 °F
Humidity 10%
Rainfall 0.00 in
Snow Depth Not available.
6:58 AM 6:01 PM
Waning Gibbous, 91% visible
METAR KLWM 162354Z 08007KT 10SM OVC018 13/09 A2973 RMK AO2 PRESFR SLP068 T01280094 10150 20128 58042
Pressure 29.73 in
Visibility 10.0 miles
Clouds Overcast 1800 ft
Dew Point -1 °F
Humidity 10%
Rainfall 0.00 in
Snow Depth Not available.
6:58 AM 6:01 PM
Waning Gibbous, 91% visible
METAR KLWM 162354Z 08007KT 10SM OVC018 13/09 A2973 RMK AO2 PRESFR SLP068 T01280094 10150 20128 58042

Get Your Daily Forecast Email!

Thanks for signing up!

Be on the lookout for a verification email in your inbox.

You'll start receiving severe weather alerts in your inbox..

×

10-Day Weather Forecast

Almanac

Astronomy

Oct. 16, 2019 Rise Set
Actual Time
Civil Twilight
Nautical Twilight
Astronomical Twilight
Moon
Length of Visible Light
Length of Day
Tomorrow will be .
, % of the Moon is Illuminated

Today's Extremes

State Highs State Lows

Community

WunderPhotos

Category 6

Welcome to Category 6. This is the collective home for Weather Underground's featured writeups by Dr. Jeff Masters (right), Bob Henson (left), Chris Burt, and other regular contributors.

Nearby

Air Quality

  Air Quality AQ Index Pollutant
Not available.

Snow Depth

Station Depth Elevation

Earthquake Activity

City Distance Mag. Time & Date
Minimum magnitude displayed is 2.5.

Coastal Water Temperatures

Place Temperature

Stations

Nearby Weather Stations

Station Location Temp. Windchill Dew Point Humidity Wind Precip. Elev Updated Type
                   

Watches & Warnings

Wind Advisory
Issued: 3:55 PM EDT Oct. 16, 2019 – National Weather Service

... Wind Advisory now in effect from 10 PM this evening to 6 PM
EDT Thursday...

* what... southwest winds 15 to 20 mph with gusts up to 50 mph
expected.

* Where... in Massachusetts, western Essex, southern Worcester
and western Plymouth counties. In Rhode Island, Providence and
western Kent counties. This includes the cities and towns of
Lawrence, Milford, Worcester, Brockton, Foster, Smithfield,
Providence, Coventry, and West Greenwich.

* When... from 10 PM this evening to 6 PM EDT Thursday.

* Impacts... gusty winds could blow around unsecured objects.
Tree limbs could be blown down and a few power outages may
result.

* Additional details... use extra caution when driving,
especially if operating a high profile vehicle. Secure outdoor
objects.

Precautionary/preparedness actions...

Use extra caution when driving, especially if operating a high
profile vehicle. Secure outdoor objects.